createdAt,value
2022-10-18T00:00:59.624Z,7.20
2022-10-18T00:04:02.708Z,7.16
2022-10-18T00:07:05.416Z,7.08
2022-10-18T00:10:09.093Z,7.14
2022-10-18T00:13:11.746Z,7.12
2022-10-18T00:16:25.221Z,7.12
2022-10-18T00:19:29.320Z,6.93
2022-10-18T00:22:35.303Z,6.81
2022-10-18T00:25:38.199Z,6.83
2022-10-18T00:28:42.079Z,6.81
2022-10-18T00:31:45.217Z,6.85
2022-10-18T00:34:48.415Z,6.85
2022-10-18T00:37:50.981Z,6.69
2022-10-18T00:40:53.907Z,6.82
2022-10-18T00:44:13.462Z,6.68
2022-10-18T00:47:18.882Z,6.72
2022-10-18T00:50:23.085Z,6.63
2022-10-18T00:53:25.956Z,6.64
2022-10-18T00:56:29.424Z,6.71
2022-10-18T00:59:34.297Z,6.54
2022-10-18T01:02:40.234Z,6.43
2022-10-18T01:05:47.884Z,6.56
2022-10-18T01:09:10.743Z,6.62
2022-10-18T01:12:53.001Z,6.44
2022-10-18T01:16:24.762Z,6.38
2022-10-18T01:20:09.315Z,6.20
2022-10-18T01:23:21.092Z,6.12
2022-10-18T01:27:03.376Z,6.29
2022-10-18T01:30:41.269Z,6.12
2022-10-18T01:33:51.184Z,6.18
2022-10-18T01:36:56.896Z,6.15
2022-10-18T01:40:03.792Z,6.27
2022-10-18T01:43:09.655Z,6.17
2022-10-18T01:46:18.025Z,6.11
2022-10-18T01:49:21.221Z,6.10
2022-10-18T01:52:24.326Z,6.06
2022-10-18T01:55:37.678Z,6.08
2022-10-18T01:59:05.359Z,6.00
2022-10-18T02:02:40.398Z,6.08
2022-10-18T02:05:43.197Z,6.10
2022-10-18T02:09:11.743Z,6.24
2022-10-18T02:12:16.462Z,6.07
2022-10-18T02:15:37.998Z,6.31
2022-10-18T02:18:46.164Z,6.06
2022-10-18T02:21:50.820Z,6.17
2022-10-18T02:24:58.759Z,6.24
2022-10-18T02:28:03.398Z,6.36
2022-10-18T02:31:35.367Z,6.45
2022-10-18T02:34:44.173Z,6.34
2022-10-18T02:37:48.949Z,6.36
2022-10-18T02:40:51.887Z,6.35
2022-10-18T02:43:55.945Z,6.29
2022-10-18T02:46:58.618Z,6.16
2022-10-18T02:50:02.234Z,6.22
2022-10-18T02:53:06.509Z,5.90
2022-10-18T02:56:09.699Z,5.97
2022-10-18T02:59:12.921Z,5.83
2022-10-18T03:02:15.806Z,5.78
2022-10-18T03:05:18.395Z,5.78
2022-10-18T03:08:22.876Z,5.80
2022-10-18T03:11:25.612Z,5.72
2022-10-18T03:14:28.551Z,5.76
2022-10-18T03:17:31.455Z,5.69
2022-10-18T03:20:35.276Z,5.62
2022-10-18T03:23:37.938Z,5.64
2022-10-18T03:26:40.772Z,5.61
2022-10-18T03:29:43.443Z,5.46
2022-10-18T03:32:46.463Z,5.43
2022-10-18T03:35:49.088Z,5.34
2022-10-18T03:38:52.041Z,5.43
2022-10-18T03:41:54.754Z,5.40
2022-10-18T03:44:57.854Z,5.34
2022-10-18T03:48:00.680Z,5.31
2022-10-18T03:51:04.132Z,5.16
2022-10-18T03:54:06.850Z,5.15
2022-10-18T03:57:09.894Z,5.14
2022-10-18T04:00:13.186Z,4.90
2022-10-18T04:03:20.290Z,4.65
2022-10-18T04:06:23.207Z,4.85
2022-10-18T04:09:26.308Z,4.79
2022-10-18T04:12:29.803Z,4.79
2022-10-18T04:15:33.769Z,4.78
2022-10-18T04:18:36.774Z,4.79
2022-10-18T04:21:40.057Z,4.44
2022-10-18T04:24:43.346Z,4.37
2022-10-18T04:28:06.831Z,4.49
2022-10-18T04:31:12.134Z,4.67
2022-10-18T04:34:19.831Z,4.61
2022-10-18T04:37:24.122Z,4.63
2022-10-18T04:41:08.868Z,4.58
2022-10-18T04:44:31.464Z,4.48
2022-10-18T04:48:15.047Z,4.63
2022-10-18T04:51:26.250Z,4.53
2022-10-18T04:54:29.800Z,4.81
2022-10-18T04:57:32.923Z,4.40
2022-10-18T05:00:40.077Z,4.97
2022-10-18T05:03:43.054Z,4.71
2022-10-18T05:06:46.972Z,4.72
2022-10-18T05:09:49.771Z,4.77
2022-10-18T05:12:56.651Z,4.80
2022-10-18T05:16:00.337Z,4.75
2022-10-18T05:19:05.780Z,4.71
2022-10-18T05:22:09.791Z,4.73
2022-10-18T05:25:13.166Z,4.79
2022-10-18T05:28:38.014Z,4.92
2022-10-18T05:31:59.672Z,4.86
2022-10-18T05:35:04.405Z,4.84
2022-10-18T05:38:42.268Z,4.98
2022-10-18T05:41:45.119Z,5.00
2022-10-18T05:44:48.062Z,5.11
2022-10-18T05:47:50.752Z,5.00
2022-10-18T05:50:54.289Z,5.12
2022-10-18T05:53:56.930Z,5.20
2022-10-18T05:56:59.946Z,5.23
2022-10-18T06:00:03.166Z,5.04
2022-10-18T06:03:14.523Z,5.38
2022-10-18T06:06:17.641Z,5.24
2022-10-18T06:09:20.332Z,5.89
2022-10-18T06:12:23.659Z,6.32
2022-10-18T06:15:41.829Z,6.63
2022-10-18T06:18:49.405Z,6.97
2022-10-18T06:21:52.204Z,7.18
2022-10-18T06:24:57.226Z,7.30
2022-10-18T06:28:00.240Z,7.69
2022-10-18T06:31:04.898Z,7.97
2022-10-18T06:34:07.543Z,8.11
2022-10-18T06:37:10.520Z,8.33
2022-10-18T06:40:13.240Z,8.51
2022-10-18T06:43:21.125Z,8.74
2022-10-18T06:46:25.909Z,8.87
2022-10-18T06:49:29.144Z,9.21
2022-10-18T06:52:32.114Z,9.44
2022-10-18T06:55:35.865Z,9.57
2022-10-18T06:58:39.411Z,9.80
2022-10-18T07:01:43.664Z,10.08
2022-10-18T07:04:50.243Z,10.21
2022-10-18T07:07:56.331Z,10.42
2022-10-18T07:10:59.339Z,10.82
2022-10-18T07:14:04.598Z,10.87
2022-10-18T07:17:07.753Z,11.09
2022-10-18T07:20:12.350Z,11.26
2022-10-18T07:23:15.113Z,11.51
2022-10-18T07:26:20.116Z,11.79
2022-10-18T07:29:23.042Z,12.11
2022-10-18T07:32:25.961Z,12.23
2022-10-18T07:35:28.639Z,12.40
2022-10-18T07:38:32.187Z,12.68
2022-10-18T07:41:35.681Z,12.84
2022-10-18T07:44:39.595Z,12.94
2022-10-18T07:47:42.348Z,12.96
2022-10-18T07:50:45.345Z,13.01
2022-10-18T07:53:48.420Z,13.23
2022-10-18T07:56:51.468Z,13.39
2022-10-18T07:59:57.033Z,13.60
2022-10-18T08:03:00.115Z,13.53
2022-10-18T08:06:04.313Z,13.58
2022-10-18T08:09:07.256Z,13.90
2022-10-18T08:12:10.372Z,13.95
2022-10-18T08:15:13.362Z,13.37
2022-10-18T08:18:16.371Z,14.09
2022-10-18T08:21:20.745Z,14.78
2022-10-18T08:24:24.025Z,14.55
2022-10-18T08:27:26.795Z,14.74
2022-10-18T08:30:32.143Z,15.18
2022-10-18T08:33:36.274Z,15.58
2022-10-18T08:36:39.305Z,15.48
2022-10-18T08:39:42.200Z,16.09
2022-10-18T08:43:09.353Z,15.88
2022-10-18T08:46:13.968Z,15.63
2022-10-18T08:49:46.875Z,16.00
2022-10-18T08:52:57.525Z,17.07
2022-10-18T08:56:15.535Z,15.91
2022-10-18T08:59:22.060Z,16.07
2022-10-18T09:02:31.282Z,16.48
2022-10-18T09:05:47.076Z,17.43
2022-10-18T09:09:10.980Z,17.18
2022-10-18T09:12:25.683Z,17.68
2022-10-18T09:15:51.982Z,17.22
2022-10-18T09:19:24.549Z,16.84
2022-10-18T09:22:45.471Z,18.05
2022-10-18T09:25:59.016Z,17.46
2022-10-18T09:29:41.187Z,17.78
2022-10-18T09:32:54.558Z,18.50
2022-10-18T09:36:08.016Z,18.09
2022-10-18T09:39:23.959Z,18.38
2022-10-18T09:42:44.304Z,18.01
2022-10-18T09:45:48.870Z,17.45
2022-10-18T09:49:29.656Z,17.84
2022-10-18T09:52:46.021Z,17.85
2022-10-18T09:56:03.811Z,18.55
2022-10-18T09:59:23.733Z,18.14
2022-10-18T10:02:26.973Z,18.30
2022-10-18T10:05:30.344Z,18.64
2022-10-18T10:08:35.109Z,18.14
2022-10-18T10:15:21.388Z,18.28
2022-10-18T10:18:36.601Z,18.50
2022-10-18T10:24:57.626Z,18.39
2022-10-18T10:28:07.447Z,19.13
2022-10-18T10:31:26.719Z,18.46
2022-10-18T10:34:31.803Z,18.75
2022-10-18T10:37:38.035Z,18.69
2022-10-18T10:40:52.293Z,18.87
2022-10-18T10:43:55.847Z,18.78
2022-10-18T10:46:59.425Z,18.87
2022-10-18T10:50:11.526Z,18.54
2022-10-18T10:53:43.716Z,18.97
2022-10-18T10:57:11.157Z,18.77
2022-10-18T11:00:36.864Z,18.85
2022-10-18T11:03:47.026Z,19.01
2022-10-18T11:07:01.961Z,18.70
2022-10-18T11:10:11.279Z,19.11
2022-10-18T11:13:35.637Z,19.07
2022-10-18T11:17:08.260Z,19.22
2022-10-18T11:20:16.152Z,18.92
2022-10-18T11:23:19.801Z,19.14
2022-10-18T11:26:50.021Z,19.31
2022-10-18T11:30:15.479Z,19.35
2022-10-18T11:33:38.455Z,19.01
2022-10-18T11:36:57.972Z,18.89
2022-10-18T11:40:37.939Z,18.74
2022-10-18T11:44:02.205Z,19.01
2022-10-18T11:47:14.436Z,19.18
2022-10-18T11:50:51.093Z,18.83
2022-10-18T11:54:28.141Z,18.95
2022-10-18T11:57:43.423Z,18.97
2022-10-18T12:00:53.605Z,18.97
2022-10-18T12:04:08.103Z,19.21
2022-10-18T12:07:15.175Z,19.04
2022-10-18T12:10:31.474Z,19.20
2022-10-18T12:14:20.709Z,19.18
2022-10-18T12:17:46.117Z,18.80
2022-10-18T12:20:55.762Z,19.01
2022-10-18T12:24:07.587Z,19.26
2022-10-18T12:27:13.412Z,19.42
2022-10-18T12:30:51.285Z,19.07
2022-10-18T12:34:02.347Z,19.07
2022-10-18T12:37:14.340Z,19.05
2022-10-18T12:40:23.640Z,18.96
2022-10-18T12:43:36.597Z,19.20
2022-10-18T12:46:58.502Z,19.13
2022-10-18T12:50:07.191Z,19.38
2022-10-18T12:53:09.916Z,19.15
2022-10-18T12:56:28.167Z,19.31
2022-10-18T12:59:30.946Z,19.40
2022-10-18T13:02:34.330Z,19.36
2022-10-18T13:05:53.985Z,19.21
2022-10-18T13:09:18.272Z,19.25
2022-10-18T13:12:20.937Z,19.38
2022-10-18T13:16:02.876Z,19.42
2022-10-18T13:19:14.085Z,19.37
2022-10-18T13:22:35.026Z,19.41
2022-10-18T13:25:55.901Z,19.41
2022-10-18T13:29:17.735Z,19.49
2022-10-18T13:32:28.099Z,19.42
2022-10-18T13:35:54.937Z,19.62
2022-10-18T13:39:02.203Z,19.66
2022-10-18T13:42:14.518Z,19.43
2022-10-18T13:45:32.572Z,19.52
2022-10-18T13:48:35.772Z,19.53
2022-10-18T13:51:50.830Z,19.63
2022-10-18T13:55:26.162Z,19.58
2022-10-18T13:59:13.173Z,19.75
2022-10-18T14:02:57.697Z,19.72
2022-10-18T14:06:12.341Z,19.75
2022-10-18T14:12:54.746Z,19.61
2022-10-18T14:16:10.975Z,19.47
2022-10-18T14:19:26.204Z,19.41
2022-10-18T14:22:34.691Z,19.41
2022-10-18T14:25:38.804Z,19.36
2022-10-18T14:28:59.117Z,19.36
2022-10-18T14:32:02.778Z,19.35
2022-10-18T14:35:33.595Z,19.34
2022-10-18T14:38:44.284Z,19.29
2022-10-18T14:41:52.983Z,19.28
2022-10-18T14:44:56.661Z,19.24
2022-10-18T14:48:07.330Z,19.12
2022-10-18T14:51:12.783Z,19.08
2022-10-18T14:54:25.016Z,19.06
2022-10-18T14:57:32.116Z,18.95
2022-10-18T15:00:37.672Z,18.80
2022-10-18T15:03:40.716Z,18.70
2022-10-18T15:06:44.498Z,18.64
2022-10-18T15:09:48.861Z,18.46
2022-10-18T15:13:08.636Z,18.38
2022-10-18T15:16:19.593Z,18.00
2022-10-18T15:19:22.143Z,17.60
2022-10-18T15:22:31.914Z,17.22
2022-10-18T15:25:36.013Z,16.96
2022-10-18T15:28:52.180Z,16.70
2022-10-18T15:31:55.242Z,16.49
2022-10-18T15:35:20.976Z,16.25
2022-10-18T15:38:28.612Z,15.76
2022-10-18T15:41:38.414Z,15.62
2022-10-18T15:44:51.478Z,15.38
2022-10-18T15:48:06.735Z,15.37
2022-10-18T15:51:34.010Z,15.29
2022-10-18T15:54:37.159Z,14.95
2022-10-18T15:57:39.811Z,14.70
2022-10-18T16:00:45.747Z,14.66
2022-10-18T16:03:50.816Z,14.49
2022-10-18T16:06:55.527Z,14.30
2022-10-18T16:09:59.588Z,14.30
2022-10-18T16:13:02.370Z,14.38
2022-10-18T16:16:05.390Z,14.15
2022-10-18T16:19:10.314Z,13.80
2022-10-18T16:25:21.852Z,13.44
2022-10-18T16:28:25.974Z,13.32
2022-10-18T16:31:31.209Z,13.20
2022-10-18T16:34:34.382Z,13.00
2022-10-18T16:37:38.259Z,12.93
2022-10-18T16:40:41.543Z,12.85
2022-10-18T16:43:47.037Z,12.54
2022-10-18T16:46:52.526Z,12.23
2022-10-18T16:49:56.719Z,12.28
2022-10-18T16:52:59.595Z,12.31
2022-10-18T16:56:04.177Z,12.26
2022-10-18T16:59:07.403Z,12.19
2022-10-18T17:02:11.600Z,12.15
2022-10-18T17:05:15.758Z,11.90
2022-10-18T17:08:21.769Z,11.62
2022-10-18T17:11:28.598Z,11.58
2022-10-18T17:14:33.331Z,11.42
2022-10-18T17:17:37.719Z,11.41
2022-10-18T17:20:41.986Z,11.17
2022-10-18T17:23:45.023Z,10.95
2022-10-18T17:26:47.674Z,10.96
2022-10-18T17:29:50.769Z,10.77
2022-10-18T17:32:55.510Z,10.78
2022-10-18T17:35:58.548Z,10.70
2022-10-18T17:39:01.873Z,10.63
2022-10-18T17:42:04.806Z,10.30
2022-10-18T17:45:08.114Z,10.29
2022-10-18T17:48:11.082Z,10.42
2022-10-18T17:51:16.300Z,10.36
2022-10-18T17:54:22.207Z,10.29
2022-10-18T17:57:24.938Z,10.46
2022-10-18T18:00:30.445Z,9.97
2022-10-18T18:03:33.387Z,9.97
2022-10-18T18:06:39.073Z,9.89
2022-10-18T18:09:42.154Z,9.79
2022-10-18T18:12:45.604Z,9.77
2022-10-18T18:15:48.573Z,9.49
2022-10-18T18:18:53.638Z,9.71
2022-10-18T18:21:58.716Z,9.54
2022-10-18T18:25:01.278Z,9.49
2022-10-18T18:28:07.550Z,9.40
2022-10-18T18:31:19.067Z,9.41
2022-10-18T18:34:24.939Z,9.45
2022-10-18T18:37:28.615Z,9.32
2022-10-18T18:40:31.539Z,9.25
2022-10-18T18:43:34.888Z,9.19
2022-10-18T18:46:38.793Z,9.17
2022-10-18T18:49:42.226Z,9.07
